Time;durP1;ratioP1;P1;durP2;ratioP2;P2;SDS_P1;SDS_P2;PMS_P1;PMS_P2;Temp;Humidity;BMP_temperature;BMP_pressure;BME280_temperature;BME280_humidity;BME280_pressure;Samples;Min_cycle;Max_cycle;Signal;HPM_P1;HPM_P2
2021/01/06 05:20:33;;;;;;;4.68;2.15;;;-8.30;99.90;;;;;;5099074;23;20505;-74
2021/01/06 05:23:01;;;;;;;2.70;2.00;;;-8.30;99.90;;;;;;4992651;28;20038;-72
2021/01/06 05:25:28;;;;;;;3.38;1.92;;;-8.30;99.90;;;;;;4992422;28;20026;-71
2021/01/06 05:27:54;;;;;;;1.98;1.88;;;-8.30;99.90;;;;;;4992348;28;20117;-71
2021/01/06 05:30:31;;;;;;;2.72;1.90;;;-8.30;99.90;;;;;;4992351;28;20153;-72
2021/01/06 05:33:08;;;;;;;3.72;2.03;;;-8.30;99.90;;;;;;4992280;28;20026;-74
2021/01/06 05:35:43;;;;;;;3.45;1.90;;;-8.20;99.90;;;;;;4992431;28;20034;-84
2021/01/06 05:38:10;;;;;;;2.88;1.50;;;-8.20;99.90;;;;;;4992953;28;20030;-78
2021/01/06 05:40:39;;;;;;;2.35;1.63;;;-8.20;99.90;;;;;;4992230;28;20069;-79
2021/01/06 05:43:33;;;;;;;1.70;1.60;;;-7.90;99.90;;;;;;4992198;28;20030;-80
2021/01/06 05:46:04;;;;;;;112.05;35.95;;;-7.00;99.90;;;;;;4992095;28;20018;-81
2021/01/06 05:48:46;;;;;;;60.30;18.70;;;-7.20;99.90;;;;;;4992251;28;20465;-76
2021/01/06 05:51:18;;;;;;;233.65;77.40;;;-7.40;99.90;;;;;;4991400;28;20034;-86
2021/01/06 05:53:46;;;;;;;62.72;21.17;;;-7.60;99.90;;;;;;4989140;28;20374;-78
2021/01/06 05:56:33;;;;;;;14.25;7.53;;;-7.70;99.90;;;;;;4990620;28;20037;-77
2021/01/06 05:59:10;;;;;;;10.45;4.82;;;-7.80;99.90;;;;;;4988971;28;20050;-73
2021/01/06 06:01:50;;;;;;;4.25;3.58;;;-7.90;99.90;;;;;;4991094;28;20034;-83
2021/01/06 06:05:00;;;;;;;8.07;4.45;;;-7.90;99.90;;;;;;4991089;28;20023;-83
2021/01/06 06:07:49;;;;;;;6.03;4.53;;;-7.90;99.90;;;;;;4972976;28;20045;-83
2021/01/06 06:10:45;;;;;;;5.13;3.97;;;-7.90;99.90;;;;;;4991788;28;20030;-75
2021/01/06 06:13:17;;;;;;;2.47;1.70;;;-7.90;99.90;;;;;;4991459;28;20486;-85
2021/01/06 06:16:04;;;;;;;3.92;2.35;;;-7.90;99.90;;;;;;4991730;28;20081;-85
2021/01/06 06:18:51;;;;;;;2.28;2.00;;;-7.90;99.90;;;;;;4988607;28;20061;-85
2021/01/06 06:21:35;;;;;;;2.47;2.00;;;-7.80;99.90;;;;;;4974336;28;20058;-86
2021/01/06 06:24:17;;;;;;;1.85;1.75;;;-7.80;99.90;;;;;;4972990;28;20026;-84
2021/01/06 06:26:48;;;;;;;3.15;2.03;;;-7.80;99.90;;;;;;4976177;28;20023;-81
2021/01/06 06:29:39;;;;;;;47.78;21.40;;;-7.70;99.90;;;;;;4975842;28;20031;-74
2021/01/06 06:32:05;;;;;;;19.02;8.95;;;-7.70;99.90;;;;;;4975846;28;20505;-75
2021/01/06 06:34:38;;;;;;;2.65;2.28;;;-7.70;99.90;;;;;;4975876;28;20046;-82
2021/01/06 06:37:14;;;;;;;2.75;1.92;;;-7.20;99.90;;;;;;4976131;28;20090;-82
2021/01/06 06:39:58;;;;;;;2.05;1.70;;;-7.30;99.90;;;;;;4976088;28;20023;-83
2021/01/06 06:42:32;;;;;;;1.95;1.70;;;-7.40;99.90;;;;;;4976064;28;20041;-79
2021/01/06 06:45:12;;;;;;;2.65;2.15;;;-7.50;99.90;;;;;;4975894;28;20031;-78
2021/01/06 06:47:50;;;;;;;1.80;1.70;;;-7.50;99.90;;;;;;4976004;28;20059;-79
2021/01/06 06:50:18;;;;;;;4.10;2.10;;;-7.60;99.90;;;;;;4975773;28;20062;-79
2021/01/06 06:53:10;;;;;;;3.03;2.72;;;-7.60;99.90;;;;;;4975708;28;20387;-78
2021/01/06 06:55:43;;;;;;;2.22;2.03;;;-7.60;99.90;;;;;;4948355;28;20058;-78
2021/01/06 06:58:20;;;;;;;2.53;2.03;;;-7.60;99.90;;;;;;4975363;28;20505;-78
2021/01/06 07:00:48;;;;;;;2.58;2.05;;;-7.60;99.90;;;;;;4975344;28;20483;-78
2021/01/06 07:03:21;;;;;;;4.20;1.90;;;-7.60;99.90;;;;;;4975513;28;20035;-78
2021/01/06 07:05:57;;;;;;;2.05;1.65;;;-7.60;99.90;;;;;;4975624;28;20034;-79
2021/01/06 07:08:41;;;;;;;2.05;1.77;;;-7.50;99.90;;;;;;4975259;28;20045;-85
2021/01/06 07:11:25;;;;;;;2.22;1.67;;;-7.30;99.90;;;;;;4975863;28;20030;-84
2021/01/06 07:14:01;;;;;;;4.40;2.28;;;-6.50;99.90;;;;;;4975642;28;20030;-73
2021/01/06 07:16:55;;;;;;;1.80;1.70;;;-5.90;99.90;;;;;;4974746;28;20042;-72
2021/01/06 07:19:50;;;;;;;2.25;1.80;;;-6.30;99.90;;;;;;4955470;28;20101;-72
2021/01/06 07:22:46;;;;;;;2.15;1.95;;;-6.60;99.90;;;;;;4948995;29;20182;-72
2021/01/06 07:25:17;;;;;;;2.13;1.80;;;-6.80;99.90;;;;;;4955551;28;20035;-72
2021/01/06 07:27:46;;;;;;;4.28;1.95;;;-6.90;99.90;;;;;;4962309;28;20422;-74
2021/01/06 07:30:37;;;;;;;2.63;1.90;;;-7.00;99.90;;;;;;4974082;28;20113;-71
2021/01/06 07:33:42;;;;;;;2.00;1.80;;;-7.00;99.90;;;;;;4971064;28;20046;-72
2021/01/06 07:36:17;;;;;;;3.63;1.95;;;-7.00;99.90;;;;;;4973905;28;20545;-71
2021/01/06 07:38:45;;;;;;;2.03;1.73;;;-7.00;99.90;;;;;;4973901;28;20362;-72
2021/01/06 07:41:11;;;;;;;3.03;1.90;;;-7.00;99.90;;;;;;4974355;28;20103;-73
2021/01/06 07:43:44;;;;;;;1.60;1.48;;;-7.10;99.90;;;;;;4974602;28;20030;-71
2021/01/06 07:46:19;;;;;;;1.67;1.50;;;-7.00;99.90;;;;;;4971446;28;20081;-71
2021/01/06 07:48:57;;;;;;;4.68;1.75;;;-7.00;99.90;;;;;;4974170;28;20019;-71
2021/01/06 07:51:38;;;;;;;2.08;1.80;;;-7.10;99.90;;;;;;4973584;28;20037;-71
2021/01/06 07:54:10;;;;;;;3.13;1.88;;;-7.10;99.90;;;;;;4973847;28;20027;-71
2021/01/06 07:56:47;;;;;;;2.85;1.95;;;-7.20;99.90;;;;;;4973989;28;20027;-71
2021/01/06 07:59:19;;;;;;;3.22;2.05;;;-7.20;99.90;;;;;;4973883;28;20023;-72
2021/01/06 08:02:31;;;;;;;3.42;1.65;;;-7.20;99.90;;;;;;4970107;28;20038;-72
2021/01/06 08:05:12;;;;;;;2.20;2.00;;;-7.10;99.90;;;;;;4956525;28;20454;-72
2021/01/06 08:07:38;;;;;;;2.45;1.90;;;-7.20;99.90;;;;;;4971403;28;20478;-72
2021/01/06 08:10:25;;;;;;;2.47;1.90;;;-7.20;99.90;;;;;;4973190;28;20058;-72
2021/01/06 08:12:51;;;;;;;2.53;1.98;;;-7.20;99.90;;;;;;4972217;28;20046;-72
2021/01/06 08:15:17;;;;;;;2.20;2.00;;;-7.20;99.90;;;;;;4969865;28;20019;-72
2021/01/06 08:17:53;;;;;;;4.88;2.40;;;-7.20;99.90;;;;;;4970581;28;20031;-72
2021/01/06 08:20:25;;;;;;;2.45;2.05;;;-7.20;99.90;;;;;;4972602;28;20372;-72
2021/01/06 08:23:01;;;;;;;2.75;2.03;;;-7.20;99.90;;;;;;4973262;28;20022;-74
2021/01/06 08:25:31;;;;;;;2.70;1.95;;;-7.20;99.90;;;;;;4971436;28;20061;-74
2021/01/06 08:27:57;;;;;;;2.75;1.98;;;-7.10;99.90;;;;;;4973430;28;20019;-74
2021/01/06 08:30:28;;;;;;;4.05;2.00;;;-7.10;99.90;;;;;;4973641;28;20123;-73
2021/01/06 08:33:09;;;;;;;169.52;53.38;;;-7.10;99.90;;;;;;4973897;28;20529;-74
2021/01/06 08:35:42;;;;;;;150.00;41.38;;;-7.00;99.90;;;;;;4970832;28;20035;-74
2021/01/06 08:38:32;;;;;;;81.25;24.30;;;-7.00;99.90;;;;;;4972984;28;20023;-74
2021/01/06 08:41:19;;;;;;;15.05;4.65;;;-7.00;99.90;;;;;;4973281;28;20057;-74
2021/01/06 08:43:46;;;;;;;4.90;2.20;;;-7.00;99.90;;;;;;4972552;28;20030;-73
2021/01/06 08:46:23;;;;;;;3.42;2.40;;;-7.00;99.90;;;;;;4973245;28;20051;-74
2021/01/06 08:48:49;;;;;;;2.35;1.90;;;-7.00;99.90;;;;;;4972688;28;20061;-73
2021/01/06 08:51:25;;;;;;;2.65;2.17;;;-6.90;99.90;;;;;;4967841;28;20043;-74
2021/01/06 08:53:50;;;;;;;7.60;4.80;;;-6.90;99.90;;;;;;4953877;28;20031;-74
2021/01/06 08:56:25;;;;;;;6.10;3.42;;;-6.90;99.90;;;;;;4954743;28;20147;-80
2021/01/06 08:58:54;;;;;;;3.65;2.90;;;-5.90;99.90;;;;;;4953872;29;20027;-77
2021/01/06 09:01:47;;;;;;;18.25;11.25;;;-4.80;99.90;;;;;;4956841;29;20038;-84
2021/01/06 09:04:21;;;;;;;6.55;4.80;;;-3.40;99.90;;;;;;4953838;28;20031;-82
2021/01/06 09:07:15;;;;;;;3.10;2.80;;;-3.90;99.90;;;;;;4953847;29;20070;-80
2021/01/06 09:10:07;;;;;;;2.50;2.15;;;-4.80;99.90;;;;;;4953453;28;20486;-81
2021/01/06 09:12:48;;;;;;;3.22;2.28;;;-5.40;99.90;;;;;;4953465;29;20493;-76
2021/01/06 09:15:30;;;;;;;;;;;-5.80;99.90;;;;;;4956039;28;20023;-75
2021/01/06 09:18:18;;;;;;;2.78;2.00;;;-6.00;99.90;;;;;;4972648;28;20317;-76
2021/01/06 09:21:13;;;;;;;3.50;2.08;;;-6.10;99.90;;;;;;4972393;28;20405;-77
2021/01/06 09:23:42;;;;;;;2.22;1.92;;;-6.20;99.90;;;;;;4972737;28;20478;-76
2021/01/06 09:26:13;;;;;;;3.70;2.30;;;-6.40;99.90;;;;;;4973516;28;20031;-75
2021/01/06 09:28:41;;;;;;;2.35;1.70;;;-6.40;99.90;;;;;;4972697;28;20109;-75
2021/01/06 09:31:06;;;;;;;2.72;2.13;;;-6.40;99.90;;;;;;4972819;28;20050;-76
2021/01/06 09:33:38;;;;;;;3.05;2.20;;;-6.30;99.90;;;;;;4973288;28;20151;-76
2021/01/06 09:36:05;;;;;;;5.10;2.63;;;-6.30;99.90;;;;;;4972816;28;20027;-77
2021/01/06 09:38:34;;;;;;;3.63;2.28;;;-6.30;99.90;;;;;;4973305;28;20033;-82
2021/01/06 09:41:03;;;;;;;2.55;1.88;;;-6.20;99.90;;;;;;4972706;28;20041;-77
2021/01/06 09:43:39;;;;;;;3.03;2.00;;;-6.10;99.90;;;;;;4972596;28;20027;-75
2021/01/06 09:46:40;;;;;;;5.20;2.10;;;-3.70;99.90;;;;;;4972726;28;20066;-79
2021/01/06 09:49:10;;;;;;;3.92;2.10;;;-3.70;99.90;;;;;;4941072;28;20037;-84
2021/01/06 09:51:42;;;;;;;;;;;-4.30;99.90;;;;;;4973286;28;20023;-85
2021/01/06 09:54:10;;;;;;;2.15;1.88;;;-4.80;99.90;;;;;;4972979;28;20029;-82
2021/01/06 09:56:36;;;;;;;3.97;2.50;;;-5.20;99.90;;;;;;4975231;28;20106;-83
2021/01/06 09:59:11;;;;;;;4.65;2.75;;;-5.50;99.90;;;;;;4972946;28;20038;-80
2021/01/06 10:01:50;;;;;;;3.67;2.20;;;-5.60;99.90;;;;;;4975797;28;20042;-80
2021/01/06 10:04:23;;;;;;;3.63;2.28;;;-5.80;99.90;;;;;;4975136;28;20066;-84
2021/01/06 10:07:26;;;;;;;2.25;1.80;;;-5.90;99.90;;;;;;4975282;28;20081;-78
2021/01/06 10:09:59;;;;;;;5.15;2.55;;;-5.90;99.90;;;;;;4973562;28;20031;-77
2021/01/06 10:12:41;;;;;;;4.65;2.40;;;-6.10;99.90;;;;;;4973148;28;20029;-77
2021/01/06 10:15:09;;;;;;;4.25;3.10;;;-6.10;99.90;;;;;;4973566;28;20034;-80
2021/01/06 10:17:56;;;;;;;3.88;2.80;;;-6.10;99.90;;;;;;4976053;28;20023;-79
2021/01/06 10:20:36;;;;;;;2.92;2.40;;;-6.10;99.90;;;;;;4956295;28;20062;-79
2021/01/06 10:23:18;;;;;;;4.27;2.60;;;-6.10;99.90;;;;;;4957204;29;20117;-79
2021/01/06 10:25:49;;;;;;;5.30;2.92;;;-6.10;99.90;;;;;;4956751;29;20474;-78
2021/01/06 10:28:35;;;;;;;7.95;3.72;;;-6.10;99.90;;;;;;4960741;29;20027;-79
2021/01/06 10:31:10;;;;;;;27.20;7.50;;;-6.10;99.90;;;;;;4946703;29;20040;-78
2021/01/06 10:33:55;;;;;;;24.65;7.25;;;-6.10;99.90;;;;;;4956686;29;20027;-78
2021/01/06 10:36:39;;;;;;;7.28;3.92;;;-6.10;99.90;;;;;;4956282;28;20023;-78
2021/01/06 10:39:05;;;;;;;4.45;2.65;;;-6.10;99.90;;;;;;4956849;29;20058;-78
2021/01/06 10:41:36;;;;;;;5.57;2.45;;;-6.10;99.90;;;;;;4956325;29;20529;-78
2021/01/06 10:44:29;;;;;;;6.47;2.70;;;-6.10;99.90;;;;;;4956554;29;20038;-78
2021/01/06 10:47:15;;;;;;;4.40;2.42;;;-6.10;99.90;;;;;;4956330;28;20598;-78
2021/01/06 10:49:51;;;;;;;3.83;2.50;;;-6.10;99.90;;;;;;4975310;28;20393;-83
2021/01/06 10:52:22;;;;;;;4.82;2.80;;;-6.10;99.90;;;;;;4975616;28;20042;-81
2021/01/06 10:54:57;;;;;;;5.38;2.90;;;-6.20;99.90;;;;;;4975697;28;20018;-81
2021/01/06 10:57:37;;;;;;;4.97;3.17;;;-6.10;99.90;;;;;;4975408;28;20026;-81
2021/01/06 11:00:20;;;;;;;5.18;2.72;;;-6.10;99.90;;;;;;4975477;28;20027;-82
2021/01/06 11:03:23;;;;;;;6.93;3.42;;;-6.10;99.90;;;;;;4975317;28;20039;-79
2021/01/06 11:05:51;;;;;;;4.30;3.10;;;-6.10;99.90;;;;;;4975074;28;20028;-79
2021/01/06 11:08:52;;;;;;;4.82;2.63;;;-6.20;99.90;;;;;;4975062;28;20023;-81
2021/01/06 11:11:55;;;;;;;4.55;2.97;;;-6.20;99.90;;;;;;4975014;28;20011;-81
2021/01/06 11:14:51;;;;;;;6.93;3.50;;;-6.20;99.90;;;;;;4975087;28;20022;-78
2021/01/06 11:17:28;;;;;;;6.43;3.35;;;-6.20;99.90;;;;;;4973753;28;20109;-80
2021/01/06 11:20:01;;;;;;;8.05;4.10;;;-6.20;99.90;;;;;;4973267;28;20450;-76
2021/01/06 11:22:42;;;;;;;6.35;4.15;;;-6.20;99.90;;;;;;4974890;28;20549;-83
2021/01/06 11:25:34;;;;;;;8.18;4.22;;;-6.10;99.90;;;;;;4974960;28;20029;-78
2021/01/06 11:28:03;;;;;;;11.82;6.20;;;-6.10;99.90;;;;;;4975078;28;20458;-80
2021/01/06 11:30:37;;;;;;;21.65;8.93;;;-6.00;99.90;;;;;;4974697;28;20027;-80
2021/01/06 11:33:17;;;;;;;23.90;10.32;;;-6.00;99.90;;;;;;4975242;28;20030;-78
2021/01/06 11:36:09;;;;;;;15.38;6.93;;;-6.00;99.90;;;;;;4974734;28;20517;-78
2021/01/06 11:38:38;;;;;;;5.68;3.67;;;-6.00;99.90;;;;;;4975064;28;20106;-76
2021/01/06 11:41:10;;;;;;;10.18;4.22;;;-6.00;99.90;;;;;;4974605;28;20122;-78
2021/01/06 11:43:38;;;;;;;6.32;2.95;;;-6.00;99.90;;;;;;4975065;28;20023;-79
2021/01/06 11:46:52;;;;;;;6.43;3.00;;;-6.00;99.90;;;;;;4974764;28;20457;-79
2021/01/06 11:49:23;;;;;;;9.40;4.25;;;-6.00;99.90;;;;;;4943762;28;20466;-79
2021/01/06 11:52:12;;;;;;;8.98;3.90;;;-6.00;99.90;;;;;;4974332;28;20023;-79
2021/01/06 11:54:46;;;;;;;7.32;4.00;;;-6.00;99.90;;;;;;4974844;28;20436;-82
2021/01/06 11:57:41;;;;;;;7.25;3.83;;;-6.00;99.90;;;;;;4974583;28;20059;-81
2021/01/06 12:00:15;;;;;;;6.00;3.83;;;-5.90;99.90;;;;;;4974033;28;20401;-81
2021/01/06 12:02:56;;;;;;;4.75;2.78;;;-5.90;99.90;;;;;;4970807;28;20039;-79
2021/01/06 12:05:31;;;;;;;6.10;2.95;;;-5.90;99.90;;;;;;4955002;28;20412;-80
2021/01/06 12:08:03;;;;;;;5.38;2.90;;;-6.00;99.90;;;;;;4954871;28;20380;-80
2021/01/06 12:10:36;;;;;;;3.35;2.45;;;-5.60;99.90;;;;;;4954758;28;20070;-86
2021/01/06 12:13:39;;;;;;;11.35;5.78;;;-5.40;99.90;;;;;;4955146;28;20031;-86
2021/01/06 12:16:11;;;;;;;9.75;4.07;;;-5.50;99.90;;;;;;4953692;29;20098;-89
2021/01/06 12:19:12;;;;;;;4.63;2.90;;;-5.60;99.90;;;;;;4953420;28;20131;-87
2021/01/06 12:21:47;;;;;;;3.38;2.72;;;-5.70;99.90;;;;;;4954900;28;20619;-88
2021/01/06 12:24:28;;;;;;;5.10;2.72;;;-5.70;99.90;;;;;;4955123;28;20027;-87
2021/01/06 12:27:09;;;;;;;;;;;-5.80;99.90;;;;;;4955086;29;20031;-85
2021/01/06 12:30:05;;;;;;;3.60;2.45;;;-5.80;99.90;;;;;;4971259;28;19914;-75
2021/01/06 12:32:56;;;;;;;3.92;2.60;;;-5.80;99.90;;;;;;4973565;28;20030;-80
2021/01/06 12:35:35;;;;;;;3.63;2.50;;;-5.80;99.90;;;;;;4973447;28;20030;-82
2021/01/06 12:38:13;;;;;;;3.08;2.40;;;-5.80;99.90;;;;;;4973513;28;20041;-82
2021/01/06 12:41:06;;;;;;;3.00;2.13;;;-5.80;99.90;;;;;;4970816;28;20046;-82
2021/01/06 12:43:38;;;;;;;2.95;2.00;;;-5.80;99.90;;;;;;4972614;28;20165;-81
2021/01/06 12:46:24;;;;;;;2.60;2.20;;;-5.80;99.90;;;;;;4973384;28;20022;-79
2021/01/06 12:49:02;;;;;;;2.42;2.15;;;-5.80;99.90;;;;;;4973545;28;20031;-79
2021/01/06 12:51:32;;;;;;;6.07;3.63;;;-5.80;99.90;;;;;;4973755;28;20045;-80
2021/01/06 12:54:04;;;;;;;8.13;4.32;;;-5.80;99.90;;;;;;4973811;28;20101;-79
2021/01/06 12:56:41;;;;;;;8.57;3.63;;;-5.70;99.90;;;;;;4973586;28;20106;-81
2021/01/06 12:59:14;;;;;;;11.30;4.32;;;-5.70;99.90;;;;;;4973621;28;20027;-79
2021/01/06 13:01:58;;;;;;;15.18;5.50;;;-5.80;99.90;;;;;;4973547;28;20169;-77
2021/01/06 13:04:45;;;;;;;8.38;3.95;;;-5.70;99.90;;;;;;4972433;28;20110;-74
2021/01/06 13:07:14;;;;;;;6.30;3.25;;;-5.70;99.90;;;;;;4970595;28;20062;-75
2021/01/06 13:09:49;;;;;;;7.78;3.63;;;-5.70;99.90;;;;;;4973013;28;20051;-80
2021/01/06 13:12:27;;;;;;;9.65;5.88;;;-5.60;99.90;;;;;;4973232;28;20027;-80
2021/01/06 13:15:16;;;;;;;13.90;7.43;;;-5.20;99.90;;;;;;4972225;28;20031;-80
2021/01/06 13:17:44;;;;;;;12.60;7.10;;;-5.30;99.90;;;;;;4972938;28;20030;-80
2021/01/06 13:20:13;;;;;;;9.52;5.55;;;-5.40;99.90;;;;;;4972732;28;20046;-80
2021/01/06 13:22:41;;;;;;;12.90;5.80;;;-5.50;99.90;;;;;;4972413;28;20039;-80
2021/01/06 13:25:25;;;;;;;7.25;3.92;;;-5.50;99.90;;;;;;4972720;28;20092;-80
2021/01/06 13:27:51;;;;;;;5.72;3.40;;;-5.50;99.90;;;;;;4972872;28;20077;-74
2021/01/06 13:30:22;;;;;;;5.15;2.80;;;-5.50;99.90;;;;;;4974844;28;20069;-76
2021/01/06 13:33:12;;;;;;;6.43;3.03;;;-5.50;99.90;;;;;;4976762;28;20038;-77
2021/01/06 13:35:42;;;;;;;5.60;3.38;;;-5.50;99.90;;;;;;4976694;28;20019;-75
2021/01/06 13:38:20;;;;;;;8.55;3.55;;;-5.50;99.90;;;;;;4976585;28;20398;-76
2021/01/06 13:40:47;;;;;;;4.68;3.08;;;-5.50;99.90;;;;;;4976380;28;20027;-83
2021/01/06 13:43:21;;;;;;;7.90;4.43;;;-4.90;99.90;;;;;;4976748;28;20030;-86
2021/01/06 13:46:11;;;;;;;4.38;2.80;;;-4.80;99.90;;;;;;4981713;28;20102;-82
2021/01/06 13:48:37;;;;;;;3.30;2.40;;;-4.90;99.90;;;;;;4976540;28;20031;-87
2021/01/06 13:51:25;;;;;;;34.08;21.83;;;-5.00;99.90;;;;;;4976360;28;20101;-85
2021/01/06 13:53:59;;;;;;;33.30;20.90;;;-5.10;99.90;;;;;;4975863;28;20109;-84
2021/01/06 13:56:43;;;;;;;7.53;4.97;;;-5.20;99.90;;;;;;4976318;28;20030;-84
2021/01/06 13:59:34;;;;;;;5.57;3.30;;;-5.20;99.90;;;;;;4976445;28;20030;-87
2021/01/06 14:02:27;;;;;;;4.63;3.80;;;-5.20;99.90;;;;;;4976444;28;20046;-86
2021/01/06 14:04:57;;;;;;;6.43;4.82;;;-5.20;99.90;;;;;;4974379;28;20060;-88
2021/01/06 14:07:47;;;;;;;4.70;3.33;;;-5.20;99.90;;;;;;4976987;28;20027;-85
2021/01/06 14:10:36;;;;;;;7.13;3.78;;;-5.30;99.90;;;;;;4976323;28;20034;-85
2021/01/06 14:13:10;;;;;;;3.92;3.03;;;-5.30;99.90;;;;;;4976409;28;20102;-81
2021/01/06 14:16:10;;;;;;;2.92;2.53;;;-5.30;99.90;;;;;;4974144;28;20427;-84
2021/01/06 14:18:52;;;;;;;3.50;2.70;;;-5.20;99.90;;;;;;4975173;28;20031;-87
2021/01/06 14:22:01;;;;;;;4.88;3.03;;;-5.30;99.90;;;;;;4975848;28;20033;-84
2021/01/06 14:24:28;;;;;;;3.78;3.03;;;-5.30;99.90;;;;;;4974323;28;20039;-85
2021/01/06 14:27:18;;;;;;;15.55;9.70;;;-5.30;99.90;;;;;;4973056;28;20383;-85
2021/01/06 14:29:54;;;;;;;11.85;5.72;;;-5.20;99.90;;;;;;4974683;28;20509;-86
2021/01/06 14:32:34;;;;;;;5.25;3.47;;;-5.20;99.90;;;;;;4975224;28;20034;-84
2021/01/06 14:35:15;;;;;;;5.43;4.07;;;-5.20;99.90;;;;;;4976107;28;20113;-85
2021/01/06 14:38:13;;;;;;;4.70;3.30;;;-5.20;99.90;;;;;;4975911;28;20027;-84
2021/01/06 14:40:51;;;;;;;6.75;2.92;;;-5.20;99.90;;;;;;4975568;28;20034;-88
2021/01/06 14:43:41;;;;;;;5.68;2.92;;;-5.20;99.90;;;;;;4975751;28;20125;-86
2021/01/06 14:46:49;;;;;;;4.28;3.17;;;-5.20;99.90;;;;;;4975991;28;20022;-87
2021/01/06 14:49:32;;;;;;;4.75;3.30;;;-5.30;99.90;;;;;;4955302;29;20031;-84
2021/01/06 14:52:11;;;;;;;4.72;2.70;;;-5.30;99.90;;;;;;4956754;29;20110;-85
2021/01/06 14:54:54;;;;;;;4.90;2.88;;;-5.30;99.90;;;;;;4956622;29;20031;-85
2021/01/06 14:57:35;;;;;;;3.38;2.53;;;-5.30;99.90;;;;;;4956228;29;20118;-84
2021/01/06 15:00:30;;;;;;;6.40;3.97;;;-5.20;99.90;;;;;;4971733;28;20530;-86
2021/01/06 15:03:06;;;;;;;5.60;3.90;;;-5.20;99.90;;;;;;4969871;28;20134;-87
2021/01/06 15:05:44;;;;;;;5.70;3.15;;;-5.20;99.90;;;;;;4975239;28;20031;-88
2021/01/06 15:08:51;;;;;;;4.55;3.33;;;-5.20;99.90;;;;;;4975748;28;20018;-87
2021/01/06 15:11:23;;;;;;;3.45;2.83;;;-5.20;99.90;;;;;;4956208;28;20423;-86
2021/01/06 15:14:06;;;;;;;4.30;3.20;;;-5.20;99.90;;;;;;4975493;28;20486;-87
2021/01/06 15:16:34;;;;;;;18.15;12.60;;;-5.30;99.90;;;;;;4975512;28;20490;-87
2021/01/06 15:19:06;;;;;;;8.43;5.50;;;-5.20;99.90;;;;;;4975200;28;20043;-89
2021/01/06 15:21:34;;;;;;;5.15;3.60;;;-5.20;99.90;;;;;;4975291;28;20085;-78
2021/01/06 15:24:04;;;;;;;4.88;3.38;;;-5.10;99.90;;;;;;4975397;28;20471;-76
2021/01/06 15:26:41;;;;;;;5.25;3.03;;;-5.10;99.90;;;;;;4975009;28;20033;-81
2021/01/06 15:29:16;;;;;;;5.35;3.60;;;-5.20;99.90;;;;;;4975282;28;20034;-82
2021/01/06 15:31:44;;;;;;;6.05;3.42;;;-5.20;99.90;;;;;;4974996;28;20105;-75
2021/01/06 15:34:27;;;;;;;6.10;4.10;;;-5.10;99.90;;;;;;4974816;28;20027;-75
2021/01/06 15:36:55;;;;;;;6.82;4.10;;;-5.10;99.90;;;;;;4974844;28;20031;-75
2021/01/06 15:39:30;;;;;;;6.45;3.58;;;-5.00;99.90;;;;;;4978939;28;20026;-81
2021/01/06 15:42:05;;;;;;;10.43;5.50;;;-5.00;99.90;;;;;;4978959;28;20038;-81
2021/01/06 15:44:34;;;;;;;8.23;4.35;;;-5.00;99.90;;;;;;4974667;28;20015;-80
2021/01/06 15:47:05;;;;;;;10.55;5.07;;;-5.00;99.90;;;;;;4974867;28;20434;-81
2021/01/06 15:49:36;;;;;;;11.40;5.25;;;-4.90;99.90;;;;;;4975020;28;20433;-81
2021/01/06 15:52:23;;;;;;;9.10;4.10;;;-4.90;99.90;;;;;;4975144;28;20406;-81
2021/01/06 15:55:21;;;;;;;7.72;3.63;;;-4.90;99.90;;;;;;4974866;28;20023;-81
2021/01/06 15:57:51;;;;;;;4.22;2.75;;;-4.90;99.90;;;;;;4966654;28;20034;-78
2021/01/06 16:00:23;;;;;;;4.00;2.78;;;-5.00;99.90;;;;;;4974564;28;20118;-82
2021/01/06 16:02:54;;;;;;;3.65;2.88;;;-5.00;99.90;;;;;;4974541;28;20034;-82
2021/01/06 16:05:34;;;;;;;5.18;2.97;;;-5.00;99.90;;;;;;4974367;28;20019;-81
2021/01/06 16:08:03;;;;;;;3.80;2.80;;;-5.10;99.90;;;;;;4974292;28;20475;-81
2021/01/06 16:10:34;;;;;;;4.68;2.38;;;-5.00;99.90;;;;;;4974475;28;20117;-81
2021/01/06 16:13:15;;;;;;;4.05;2.63;;;-5.00;99.90;;;;;;4974050;28;20109;-82
2021/01/06 16:15:42;;;;;;;4.15;2.85;;;-5.00;99.90;;;;;;4974190;28;20026;-80
2021/01/06 16:18:45;;;;;;;4.18;2.63;;;-5.00;99.90;;;;;;4973849;28;20545;-78
2021/01/06 16:21:21;;;;;;;7.32;3.60;;;-5.00;99.90;;;;;;4973779;28;20039;-79
2021/01/06 16:23:54;;;;;;;7.03;4.07;;;-5.00;99.90;;;;;;4973978;28;20049;-80
2021/01/06 16:26:27;;;;;;;5.50;3.58;;;-5.00;99.90;;;;;;4973876;28;20105;-80
2021/01/06 16:28:55;;;;;;;10.15;5.47;;;-5.00;99.90;;;;;;4973789;28;20150;-77
2021/01/06 16:31:42;;;;;;;10.30;5.47;;;-5.00;99.90;;;;;;4974232;28;20161;-77
2021/01/06 16:34:25;;;;;;;7.65;4.65;;;-4.90;99.90;;;;;;4972211;28;20027;-80
2021/01/06 16:37:03;;;;;;;6.63;4.05;;;-5.00;99.90;;;;;;4973654;28;20031;-77
2021/01/06 16:39:28;;;;;;;5.75;3.50;;;-5.00;99.90;;;;;;4973851;28;20031;-77
2021/01/06 16:41:57;;;;;;;6.13;3.78;;;-5.00;99.90;;;;;;4973874;28;20046;-77
2021/01/06 16:44:29;;;;;;;5.68;3.58;;;-4.90;99.90;;;;;;4974009;28;20429;-76
2021/01/06 16:47:05;;;;;;;6.18;3.85;;;-4.80;99.90;;;;;;4967949;28;20479;-78
2021/01/06 16:49:34;;;;;;;6.47;3.72;;;-4.80;99.90;;;;;;4964541;28;20077;-76
2021/01/06 16:52:08;;;;;;;10.63;4.60;;;-4.80;99.90;;;;;;4973504;28;20665;-87
2021/01/06 16:54:41;;;;;;;21.92;8.88;;;-4.80;99.90;;;;;;4973877;28;20502;-81
2021/01/06 16:57:27;;;;;;;15.93;8.27;;;-4.90;99.90;;;;;;4973641;28;20118;-77
2021/01/06 16:59:53;;;;;;;15.75;6.63;;;-4.90;99.90;;;;;;4973479;28;20026;-75
2021/01/06 17:02:21;;;;;;;20.73;6.90;;;-4.90;99.90;;;;;;4973211;28;20034;-77
2021/01/06 17:04:48;;;;;;;24.92;10.27;;;-4.10;99.90;;;;;;4972785;28;20479;-77
2021/01/06 17:07:32;;;;;;;31.73;11.77;;;-3.50;99.90;;;;;;4973349;28;20026;-77
2021/01/06 17:10:00;;;;;;;20.40;10.70;;;-3.20;99.90;;;;;;4973339;28;20363;-76
2021/01/06 17:12:31;;;;;;;24.15;9.45;;;-3.50;99.90;;;;;;4973509;28;20030;-76
2021/01/06 17:14:56;;;;;;;;;;;-3.80;99.90;;;;;;4972684;28;20505;-76
2021/01/06 17:17:26;;;;;;;16.88;8.40;;;-4.00;99.90;;;;;;4973164;28;19910;-78
2021/01/06 17:19:57;;;;;;;17.30;7.82;;;-4.20;99.90;;;;;;4973206;28;20537;-78
2021/01/06 17:22:34;;;;;;;15.75;8.05;;;-4.30;99.90;;;;;;4972822;28;20538;-78
2021/01/06 17:25:13;;;;;;;20.20;8.75;;;-4.30;99.90;;;;;;4973595;28;20042;-77
2021/01/06 17:27:46;;;;;;;15.13;7.65;;;-4.30;99.90;;;;;;4971010;28;20161;-77
2021/01/06 17:30:20;;;;;;;16.92;7.35;;;-4.30;99.90;;;;;;4972715;28;20022;-77
2021/01/06 17:32:57;;;;;;;15.55;7.50;;;-4.00;99.90;;;;;;4970516;28;20026;-74
2021/01/06 17:35:27;;;;;;;11.55;6.38;;;-3.90;99.90;;;;;;4973452;28;20037;-76
2021/01/06 17:38:10;;;;;;;9.93;5.87;;;-4.00;99.90;;;;;;4972859;28;20047;-76
2021/01/06 17:40:43;;;;;;;10.00;6.05;;;-4.10;99.90;;;;;;4969618;28;20312;-76
2021/01/06 17:43:10;;;;;;;9.30;5.45;;;-4.30;99.90;;;;;;4968127;28;20035;-74
2021/01/06 17:45:41;;;;;;;13.40;7.00;;;-4.40;99.90;;;;;;4966884;28;20023;-76
2021/01/06 17:48:22;;;;;;;10.90;6.55;;;-4.40;99.90;;;;;;4960026;28;20081;-75
2021/01/06 17:50:53;;;;;;;11.73;6.88;;;-4.40;99.90;;;;;;4960188;28;20513;-74
2021/01/06 17:53:21;;;;;;;10.27;6.03;;;-4.40;99.90;;;;;;4972874;28;20166;-75
2021/01/06 17:55:48;;;;;;;9.35;5.25;;;-4.40;99.90;;;;;;4972539;28;20030;-76
2021/01/06 17:58:16;;;;;;;12.60;5.85;;;-4.40;99.90;;;;;;4972604;28;20062;-75
2021/01/06 18:00:43;;;;;;;10.18;5.72;;;-4.40;99.90;;;;;;4972451;28;20030;-75
2021/01/06 18:03:17;;;;;;;11.43;6.32;;;-4.40;99.90;;;;;;4971137;28;20086;-74
2021/01/06 18:05:51;;;;;;;17.25;8.23;;;-4.40;99.90;;;;;;4972418;28;20050;-74
2021/01/06 18:08:17;;;;;;;19.52;7.22;;;-4.50;99.90;;;;;;4972256;28;20094;-75
2021/01/06 18:10:43;;;;;;;15.45;8.45;;;-4.50;99.90;;;;;;4972142;28;20027;-75
2021/01/06 18:13:13;;;;;;;17.55;7.82;;;-4.50;99.90;;;;;;4970994;28;20029;-74
2021/01/06 18:15:51;;;;;;;25.02;8.38;;;-4.40;99.90;;;;;;4971936;28;20026;-75
2021/01/06 18:18:21;;;;;;;17.90;6.95;;;-4.50;99.90;;;;;;4975483;28;20058;-74
2021/01/06 18:20:48;;;;;;;12.95;6.53;;;-4.50;99.90;;;;;;4975444;28;20433;-74
2021/01/06 18:23:21;;;;;;;14.23;7.22;;;-4.50;99.90;;;;;;4976140;28;20031;-74
2021/01/06 18:25:54;;;;;;;17.83;6.78;;;-4.40;99.90;;;;;;4974577;28;20030;-74
2021/01/06 18:28:20;;;;;;;9.88;5.50;;;-4.40;99.90;;;;;;4975947;28;20061;-73
2021/01/06 18:30:54;;;;;;;11.90;5.68;;;-4.40;99.90;;;;;;4975489;28;20023;-76
2021/01/06 18:33:31;;;;;;;9.75;5.07;;;-4.40;99.90;;;;;;4967078;28;20046;-76
2021/01/06 18:36:15;;;;;;;14.15;6.28;;;-4.50;99.90;;;;;;4975455;28;20382;-76
2021/01/06 18:39:01;;;;;;;11.00;5.22;;;-4.50;99.90;;;;;;4975630;28;20023;-76
2021/01/06 18:41:29;;;;;;;6.63;3.75;;;-4.40;99.90;;;;;;4972736;28;20050;-75
2021/01/06 18:43:56;;;;;;;8.07;4.38;;;-4.40;99.90;;;;;;4975787;28;20110;-76
2021/01/06 18:46:39;;;;;;;9.00;4.20;;;-4.40;99.90;;;;;;4971600;28;20046;-75
2021/01/06 18:49:15;;;;;;;6.78;3.70;;;-4.40;99.90;;;;;;4971731;28;20027;-75
2021/01/06 18:51:53;;;;;;;7.93;6.35;;;-4.40;99.90;;;;;;4966675;28;20035;-76
2021/01/06 18:54:27;;;;;;;5.80;4.38;;;-4.40;99.90;;;;;;4975502;28;20034;-77
2021/01/06 18:57:12;;;;;;;5.57;3.83;;;-4.40;99.90;;;;;;4974917;28;20018;-77
2021/01/06 18:59:40;;;;;;;5.75;4.18;;;-3.80;99.90;;;;;;4969189;28;20019;-76